METAR Data
IDs: Format: Raw Decoded Include TAF

Data at: 1402 UTC 19 Feb 2020

METAR for:EGNX (Nottingham/E Midland, --, UK)
Text:EGNX 191350Z 20013KT 9000 -RA FEW010 BKN036 06/04 Q1015
Temperature: 6.0°C ( 43°F)
Dewpoint: 4.0°C ( 39°F) [RH = 87%]
Pressure (altimeter):29.97 inches Hg (1015.0 mb)
Winds:from the SSW (200 degrees) at 15 MPH (13 knots; 6.7 m/s)
Visibility: 6 sm ( 9 km)
Ceiling:3600 feet AGL
Clouds: few clouds at 1000 feet AGL, broken clouds at 3600 feet AGL
Weather:-RA (light rain)